createdAt,value
2023-04-15T00:03:35.000Z,11.95
2023-04-15T00:07:40.978Z,8.35
2023-04-15T00:11:44.572Z,8.13
2023-04-15T00:15:48.269Z,9.02
2023-04-15T00:19:51.593Z,11.18
2023-04-15T00:23:56.536Z,9.18
2023-04-15T00:27:59.642Z,7.35
2023-04-15T00:32:03.061Z,7.10
2023-04-15T00:36:08.704Z,8.85
2023-04-15T00:40:15.018Z,8.50
2023-04-15T00:44:19.090Z,5.38
2023-04-15T00:48:23.153Z,6.03
2023-04-15T00:52:26.192Z,9.75
2023-04-15T00:56:32.322Z,5.20
2023-04-15T01:00:36.333Z,6.40
2023-04-15T01:04:39.834Z,5.78
2023-04-15T01:08:43.233Z,6.18
2023-04-15T01:12:48.184Z,7.10
2023-04-15T01:16:52.321Z,11.43
2023-04-15T01:20:55.559Z,10.45
2023-04-15T01:25:05.048Z,10.70
2023-04-15T01:29:10.795Z,11.15
2023-04-15T01:33:14.002Z,11.18
2023-04-15T01:37:17.194Z,8.07
2023-04-15T01:41:25.496Z,12.65
2023-04-15T01:45:31.275Z,14.07
2023-04-15T01:49:34.807Z,12.23
2023-04-15T01:53:38.151Z,11.95
2023-04-15T01:57:41.878Z,10.02
2023-04-15T02:01:46.811Z,10.05
2023-04-15T02:05:51.191Z,13.85
2023-04-15T02:09:54.656Z,10.88
2023-04-15T02:13:58.225Z,10.40
2023-04-15T02:18:03.016Z,10.38
2023-04-15T02:22:07.697Z,11.15
2023-04-15T02:26:11.479Z,9.25
2023-04-15T02:30:14.926Z,6.90
2023-04-15T02:34:21.180Z,8.88
2023-04-15T02:38:24.380Z,6.88
2023-04-15T02:42:29.187Z,5.10
2023-04-15T02:46:33.196Z,10.18
2023-04-15T02:50:39.916Z,8.00
2023-04-15T02:54:43.577Z,10.55
2023-04-15T02:58:47.420Z,8.85
2023-04-15T03:02:52.732Z,7.80
2023-04-15T03:06:58.806Z,4.80
2023-04-15T03:11:03.076Z,9.10
2023-04-15T03:15:07.278Z,5.78
2023-04-15T03:19:11.145Z,5.03
2023-04-15T03:23:16.481Z,2.90
2023-04-15T03:27:19.763Z,9.20
2023-04-15T03:31:23.155Z,5.00
2023-04-15T03:35:26.943Z,5.50
2023-04-15T03:39:32.026Z,7.15
2023-04-15T03:43:35.533Z,6.40
2023-04-15T03:47:39.557Z,7.57
2023-04-15T03:51:43.275Z,5.43
2023-04-15T03:55:48.535Z,6.43
2023-04-15T03:59:51.922Z,6.28
2023-04-15T04:03:55.646Z,6.65
2023-04-15T04:08:00.179Z,7.10
2023-04-15T04:12:05.575Z,6.18
2023-04-15T04:16:09.256Z,6.82
2023-04-15T04:20:13.036Z,7.07
2023-04-15T04:24:16.687Z,6.38
2023-04-15T04:28:22.540Z,5.47
2023-04-15T04:32:26.527Z,6.15
2023-04-15T04:36:30.026Z,6.20
2023-04-15T04:40:34.975Z,3.95
2023-04-15T04:44:42.417Z,9.50
2023-04-15T04:48:48.009Z,4.50
2023-04-15T04:52:52.050Z,5.82
2023-04-15T04:56:55.967Z,5.18
2023-04-15T05:01:04.679Z,5.35
2023-04-15T05:05:11.603Z,8.68
2023-04-15T05:09:16.727Z,8.85
2023-04-15T05:13:22.182Z,6.38
2023-04-15T05:17:28.557Z,5.20
2023-04-15T05:21:33.646Z,4.57
2023-04-15T05:25:38.546Z,7.15
2023-04-15T05:29:42.994Z,3.55
2023-04-15T05:33:48.497Z,8.18
2023-04-15T05:37:52.955Z,9.05
2023-04-15T05:41:58.133Z,9.35
2023-04-15T05:46:02.752Z,6.07
2023-04-15T05:50:09.329Z,6.03
2023-04-15T05:54:15.057Z,9.82
2023-04-15T05:58:19.503Z,7.65
2023-04-15T06:02:26.877Z,7.28
2023-04-15T06:06:35.235Z,7.47
2023-04-15T06:10:40.238Z,10.20
2023-04-15T06:14:44.899Z,5.50
2023-04-15T06:18:49.733Z,8.80
2023-04-15T06:22:57.420Z,9.00
2023-04-15T06:27:02.665Z,7.75
2023-04-15T06:31:06.966Z,7.78
2023-04-15T06:35:12.117Z,5.47
2023-04-15T06:39:17.760Z,4.80
2023-04-15T06:43:22.314Z,6.07
2023-04-15T06:47:26.511Z,7.72
2023-04-15T06:51:31.356Z,7.70
2023-04-15T06:55:37.033Z,8.70
2023-04-15T06:59:41.191Z,5.40
2023-04-15T07:03:45.856Z,6.05
2023-04-15T07:07:51.126Z,3.65
2023-04-15T07:11:57.421Z,5.95
2023-04-15T07:16:02.620Z,6.57
2023-04-15T07:20:07.886Z,5.07
2023-04-15T07:24:12.433Z,4.90
2023-04-15T07:28:18.414Z,6.18
2023-04-15T07:32:23.125Z,5.15
2023-04-15T07:36:28.650Z,5.25
2023-04-15T07:40:34.086Z,5.45
2023-04-15T07:44:39.878Z,5.45
2023-04-15T07:48:44.663Z,4.72
2023-04-15T07:52:49.653Z,6.60
2023-04-15T07:56:53.931Z,6.10
2023-04-15T08:00:59.996Z,5.72
2023-04-15T08:05:04.915Z,4.60
2023-04-15T08:09:10.459Z,5.30
2023-04-15T08:13:15.543Z,4.18
2023-04-15T08:17:21.254Z,4.00
2023-04-15T08:21:25.818Z,10.65
2023-04-15T08:25:30.165Z,5.47
2023-04-15T08:29:34.728Z,5.15
2023-04-15T08:33:39.305Z,3.92
2023-04-15T08:37:43.030Z,4.18
2023-04-15T08:41:49.810Z,5.00
2023-04-15T08:45:55.565Z,4.72
2023-04-15T08:50:02.159Z,6.38
2023-04-15T08:54:07.251Z,7.03
2023-04-15T08:58:12.123Z,5.53
2023-04-15T09:02:16.650Z,4.40
2023-04-15T09:06:23.314Z,4.65
2023-04-15T09:10:28.002Z,4.78
2023-04-15T09:14:32.872Z,3.72
2023-04-15T09:18:37.866Z,7.95
2023-04-15T09:22:42.963Z,4.18
2023-04-15T09:26:46.675Z,3.25
2023-04-15T09:30:53.753Z,4.20
2023-04-15T09:34:56.667Z,4.78
2023-04-15T09:39:01.812Z,3.70
2023-04-15T09:43:05.409Z,3.17
2023-04-15T09:47:08.332Z,4.80
2023-04-15T09:55:17.364Z,3.22
2023-04-15T09:59:21.775Z,4.20
2023-04-15T10:03:26.948Z,2.67
2023-04-15T10:07:31.201Z,1.92
2023-04-15T10:11:37.669Z,4.88
2023-04-15T10:15:40.801Z,5.10
2023-04-15T10:19:44.677Z,2.30
2023-04-15T10:23:49.286Z,4.05
2023-04-15T10:27:53.905Z,3.10
2023-04-15T10:31:56.992Z,2.53
2023-04-15T10:36:00.786Z,2.55
2023-04-15T10:40:25.660Z,4.90
2023-04-15T10:44:31.286Z,6.22
2023-04-15T10:48:34.432Z,6.00
2023-04-15T10:56:43.188Z,3.22
2023-04-15T11:00:52.729Z,3.92
2023-04-15T11:04:58.358Z,4.78
2023-04-15T11:09:06.298Z,4.30
2023-04-15T11:13:17.962Z,3.55
2023-04-15T11:17:30.314Z,5.47
2023-04-15T11:21:34.776Z,2.78
2023-04-15T11:25:38.468Z,3.83
2023-04-15T11:29:42.048Z,4.75
2023-04-15T11:38:01.564Z,4.22
2023-04-15T11:42:05.214Z,3.17
2023-04-15T11:46:08.639Z,2.00
2023-04-15T11:50:22.217Z,3.53
2023-04-15T11:54:27.317Z,5.05
2023-04-15T11:58:31.976Z,2.75
2023-04-15T12:02:39.306Z,3.50
2023-04-15T12:06:44.086Z,6.38
2023-04-15T12:10:46.948Z,2.95
2023-04-15T12:14:53.224Z,1.70
2023-04-15T12:18:57.067Z,3.95
2023-04-15T12:23:08.211Z,4.40
2023-04-15T12:27:14.614Z,4.32
2023-04-15T12:31:18.093Z,5.43
2023-04-15T12:35:21.890Z,1.98
2023-04-15T12:39:30.611Z,6.15
2023-04-15T12:43:34.297Z,5.07
2023-04-15T12:47:37.822Z,3.63
2023-04-15T12:51:41.132Z,3.50
2023-04-15T12:55:45.771Z,4.07
2023-04-15T12:59:49.265Z,4.88
2023-04-15T13:03:54.258Z,3.70
2023-04-15T13:07:57.595Z,2.40
2023-04-15T13:12:02.705Z,1.60
2023-04-15T13:16:06.692Z,3.22
2023-04-15T13:20:10.836Z,3.80
2023-04-15T13:24:14.234Z,1.38
2023-04-15T13:28:19.334Z,1.98
2023-04-15T13:32:23.000Z,0.75
2023-04-15T13:36:26.465Z,1.27
2023-04-15T13:40:29.758Z,1.60
2023-04-15T13:48:38.015Z,1.55
2023-04-15T13:52:41.264Z,1.27
2023-04-15T14:00:48.258Z,2.72
2023-04-15T14:04:51.542Z,2.33
2023-04-15T14:08:55.003Z,2.08
2023-04-15T14:12:58.056Z,4.45
2023-04-15T14:17:03.021Z,4.35
2023-04-15T14:21:07.530Z,3.42
2023-04-15T14:25:15.136Z,1.95
2023-04-15T14:29:26.711Z,3.25
2023-04-15T14:33:30.903Z,3.22
2023-04-15T14:37:34.195Z,3.45
2023-04-15T14:41:37.802Z,2.42
2023-04-15T14:45:43.707Z,2.67
2023-04-15T14:49:49.604Z,4.32
2023-04-15T14:53:52.927Z,3.45
2023-04-15T14:57:55.954Z,1.58
2023-04-15T15:01:59.054Z,1.60
2023-04-15T15:10:07.660Z,1.83
2023-04-15T15:14:11.856Z,2.10
2023-04-15T15:18:15.643Z,1.70
2023-04-15T15:22:21.453Z,1.77
2023-04-15T15:26:24.565Z,2.60
2023-04-15T15:30:27.277Z,1.63
2023-04-15T15:34:30.622Z,1.90
2023-04-15T15:42:38.945Z,1.70
2023-04-15T15:46:42.106Z,1.80
2023-04-15T15:50:46.011Z,3.97
2023-04-15T15:54:50.711Z,5.60
2023-04-15T15:58:54.335Z,1.90
2023-04-15T16:07:04.480Z,3.05
2023-04-15T16:11:09.146Z,3.92
2023-04-15T16:15:13.187Z,3.20
2023-04-15T16:19:16.570Z,3.60
2023-04-15T16:23:21.664Z,4.00
2023-04-15T16:27:26.064Z,4.15
2023-04-15T16:31:29.171Z,3.88
2023-04-15T16:35:34.457Z,5.90
2023-04-15T16:39:37.956Z,3.65
2023-04-15T16:43:42.952Z,2.80
2023-04-15T16:47:45.855Z,8.40
2023-04-15T16:51:49.115Z,5.88
2023-04-15T16:55:52.504Z,3.17
2023-04-15T16:59:56.980Z,5.13
2023-04-15T17:04:00.259Z,3.22
2023-04-15T17:08:03.318Z,2.55
2023-04-15T17:12:06.475Z,3.17
2023-04-15T17:16:11.274Z,5.13
2023-04-15T17:20:14.319Z,4.15
2023-04-15T17:24:17.146Z,5.05
2023-04-15T17:28:20.248Z,3.38
2023-04-15T17:32:24.924Z,2.35
2023-04-15T17:36:27.945Z,4.82
2023-04-15T17:40:30.750Z,2.75
2023-04-15T17:44:33.725Z,3.88
2023-04-15T17:48:38.237Z,1.80
2023-04-15T17:52:41.701Z,2.22
2023-04-15T17:56:44.449Z,5.25
2023-04-15T18:00:47.456Z,1.65
2023-04-15T18:04:51.994Z,1.65
2023-04-15T18:08:55.144Z,2.13
2023-04-15T18:12:58.128Z,8.05
2023-04-15T18:17:01.128Z,3.03
2023-04-15T18:21:06.188Z,3.10
2023-04-15T18:25:10.237Z,3.92
2023-04-15T18:29:13.350Z,3.30
2023-04-15T18:33:16.602Z,4.20
2023-04-15T18:37:20.949Z,1.80
2023-04-15T18:41:25.286Z,2.15
2023-04-15T18:45:28.129Z,2.58
2023-04-15T18:49:32.364Z,2.25
2023-04-15T18:53:36.909Z,2.75
2023-04-15T18:57:42.840Z,4.85
2023-04-15T19:01:47.460Z,2.28
2023-04-15T19:05:50.921Z,3.03
2023-04-15T19:09:55.803Z,4.15
2023-04-15T19:13:58.905Z,3.13
2023-04-15T19:18:02.266Z,3.15
2023-04-15T19:22:06.161Z,3.67
2023-04-15T19:26:10.610Z,2.20
2023-04-15T19:30:14.113Z,2.78
2023-04-15T19:34:17.539Z,3.50
2023-04-15T19:38:20.632Z,3.05
2023-04-15T19:42:25.340Z,3.75
2023-04-15T19:46:28.699Z,2.42
2023-04-15T19:50:33.405Z,3.05
2023-04-15T19:54:36.729Z,3.72
2023-04-15T19:58:41.505Z,2.92
2023-04-15T20:02:44.945Z,2.70
2023-04-15T20:06:48.109Z,2.03
2023-04-15T20:10:51.466Z,3.72
2023-04-15T20:14:56.233Z,2.55
2023-04-15T20:19:02.105Z,8.50
2023-04-15T20:23:05.235Z,3.95
2023-04-15T20:27:08.378Z,3.35
2023-04-15T20:31:13.412Z,3.65
2023-04-15T20:35:16.636Z,3.05
2023-04-15T20:39:19.952Z,5.32
2023-04-15T20:43:22.900Z,7.57
2023-04-15T20:47:27.790Z,3.10
2023-04-15T20:51:37.331Z,3.70
2023-04-15T20:56:00.309Z,4.80
2023-04-15T21:00:04.209Z,5.28
2023-04-15T21:04:09.190Z,3.10
2023-04-15T21:08:13.041Z,6.55
2023-04-15T21:12:16.583Z,4.95
2023-04-15T21:16:19.731Z,4.57
2023-04-15T21:20:24.605Z,4.55
2023-04-15T21:24:27.721Z,4.00
2023-04-15T21:28:31.000Z,3.75
2023-04-15T21:32:34.814Z,6.55
2023-04-15T21:36:39.966Z,3.83
2023-04-15T21:40:43.158Z,4.97
2023-04-15T21:44:46.533Z,4.60
2023-04-15T21:48:49.756Z,7.45
2023-04-15T21:52:54.327Z,2.42
2023-04-15T21:56:57.451Z,2.63
2023-04-15T22:01:00.784Z,3.83
2023-04-15T22:05:04.035Z,2.83
2023-04-15T22:09:08.698Z,2.85
2023-04-15T22:13:13.024Z,3.40
2023-04-15T22:17:16.051Z,5.22
2023-04-15T22:21:22.116Z,2.35
2023-04-15T22:25:27.283Z,3.72
2023-04-15T22:29:30.614Z,2.63
2023-04-15T22:33:33.948Z,4.40
2023-04-15T22:37:36.920Z,2.63
2023-04-15T22:41:41.583Z,3.10
2023-04-15T22:45:50.303Z,5.90
2023-04-15T22:49:53.405Z,6.18
2023-04-15T22:53:56.792Z,3.10
2023-04-15T22:58:01.294Z,3.08
2023-04-15T23:02:04.469Z,3.67
2023-04-15T23:06:07.742Z,4.78
2023-04-15T23:10:11.408Z,3.63
2023-04-15T23:14:19.191Z,2.42
2023-04-15T23:18:22.591Z,2.83
2023-04-15T23:22:25.532Z,3.20
2023-04-15T23:26:28.813Z,2.92
2023-04-15T23:30:33.504Z,2.55
2023-04-15T23:34:36.965Z,2.35
2023-04-15T23:38:43.020Z,2.75
2023-04-15T23:42:46.611Z,5.90
2023-04-15T23:46:51.835Z,1.60
2023-04-15T23:50:54.878Z,3.38
